createdAt,value
2023-05-10T00:02:22.892Z,5.00
2023-05-10T00:04:50.162Z,6.43
2023-05-10T00:07:18.569Z,5.57
2023-05-10T00:09:45.470Z,5.38
2023-05-10T00:12:12.515Z,6.03
2023-05-10T00:14:39.684Z,6.93
2023-05-10T00:17:06.674Z,5.75
2023-05-10T00:19:33.769Z,4.55
2023-05-10T00:22:00.702Z,5.32
2023-05-10T00:24:27.660Z,4.32
2023-05-10T00:26:54.521Z,4.60
2023-05-10T00:29:21.414Z,4.38
2023-05-10T00:31:48.385Z,3.95
2023-05-10T00:34:15.477Z,5.82
2023-05-10T00:36:42.694Z,5.13
2023-05-10T00:39:09.694Z,5.03
2023-05-10T00:41:36.568Z,4.82
2023-05-10T00:44:03.842Z,4.90
2023-05-10T00:46:32.081Z,4.05
2023-05-10T00:48:59.440Z,4.95
2023-05-10T00:51:27.084Z,4.90
2023-05-10T00:53:54.476Z,4.90
2023-05-10T00:56:24.237Z,4.95
2023-05-10T00:58:51.476Z,3.60
2023-05-10T01:03:53.892Z,3.17
2023-05-10T01:06:20.970Z,3.20
2023-05-10T01:08:51.210Z,3.50
2023-05-10T01:11:18.440Z,3.28
2023-05-10T01:13:54.053Z,3.55
2023-05-10T01:16:21.484Z,3.37
2023-05-10T01:18:49.818Z,2.95
2023-05-10T01:21:29.109Z,3.45
2023-05-10T01:24:24.034Z,3.30
2023-05-10T01:27:02.984Z,3.55
2023-05-10T01:29:41.847Z,3.00
2023-05-10T01:32:22.230Z,3.22
2023-05-10T01:34:58.457Z,3.05
2023-05-10T01:37:43.754Z,3.30
2023-05-10T01:40:53.148Z,3.30
2023-05-10T01:43:27.740Z,3.38
2023-05-10T01:46:15.814Z,3.60
2023-05-10T01:48:55.998Z,3.80
2023-05-10T01:51:28.902Z,4.68
2023-05-10T01:54:02.009Z,3.30
2023-05-10T01:56:33.374Z,3.80
2023-05-10T01:59:05.694Z,3.00
2023-05-10T02:01:34.996Z,3.38
2023-05-10T02:04:04.710Z,3.08
2023-05-10T02:06:34.815Z,3.50
2023-05-10T02:09:04.052Z,3.50
2023-05-10T02:11:32.884Z,3.42
2023-05-10T02:14:03.163Z,3.25
2023-05-10T02:16:32.254Z,3.13
2023-05-10T02:19:01.518Z,3.50
2023-05-10T02:21:30.304Z,3.63
2023-05-10T02:23:59.374Z,3.30
2023-05-10T02:26:28.778Z,3.33
2023-05-10T02:28:58.557Z,3.55
2023-05-10T02:31:27.383Z,3.45
2023-05-10T02:33:55.516Z,2.92
2023-05-10T02:36:24.309Z,3.17
2023-05-10T02:38:54.324Z,2.92
2023-05-10T02:41:24.778Z,3.08
2023-05-10T02:43:53.688Z,3.22
2023-05-10T02:46:20.890Z,3.50
2023-05-10T02:48:48.397Z,3.30
2023-05-10T02:51:18.832Z,3.85
2023-05-10T02:53:48.386Z,3.58
2023-05-10T02:56:21.824Z,3.88
2023-05-10T02:58:49.156Z,4.03
2023-05-10T03:01:17.282Z,3.65
2023-05-10T03:03:44.691Z,3.30
2023-05-10T03:06:11.747Z,3.40
2023-05-10T03:08:39.037Z,4.00
2023-05-10T03:11:25.896Z,3.72
2023-05-10T03:14:07.420Z,3.70
2023-05-10T03:16:47.734Z,4.35
2023-05-10T03:19:40.155Z,3.60
2023-05-10T03:22:12.011Z,4.05
2023-05-10T03:24:41.022Z,4.05
2023-05-10T03:27:09.432Z,3.78
2023-05-10T03:29:37.598Z,4.57
2023-05-10T03:32:05.394Z,3.78
2023-05-10T03:34:32.951Z,4.25
2023-05-10T03:37:00.422Z,3.92
2023-05-10T03:39:27.405Z,4.53
2023-05-10T03:41:54.492Z,4.05
2023-05-10T03:44:21.683Z,4.30
2023-05-10T03:46:48.857Z,3.80
2023-05-10T03:49:16.423Z,4.22
2023-05-10T03:51:43.629Z,3.97
2023-05-10T03:54:10.747Z,4.10
2023-05-10T03:56:37.987Z,4.22
2023-05-10T03:59:08.693Z,3.55
2023-05-10T04:01:36.589Z,3.42
2023-05-10T04:04:04.000Z,3.90
2023-05-10T04:06:31.258Z,4.00
2023-05-10T04:09:01.093Z,4.03
2023-05-10T04:11:28.265Z,3.78
2023-05-10T04:13:55.332Z,4.40
2023-05-10T04:16:22.357Z,4.05
2023-05-10T04:18:50.042Z,3.88
2023-05-10T04:21:17.311Z,4.15
2023-05-10T04:23:44.290Z,3.97
2023-05-10T04:26:11.737Z,3.97
2023-05-10T04:28:39.412Z,4.38
2023-05-10T04:31:11.250Z,5.00
2023-05-10T04:33:38.359Z,4.55
2023-05-10T04:36:05.828Z,4.00
2023-05-10T04:38:32.840Z,3.97
2023-05-10T04:41:10.261Z,4.05
2023-05-10T04:43:38.217Z,4.47
2023-05-10T04:46:06.407Z,4.20
2023-05-10T04:48:33.839Z,4.57
2023-05-10T04:51:01.047Z,4.72
2023-05-10T04:53:28.010Z,4.30
2023-05-10T04:55:55.233Z,4.53
2023-05-10T04:58:22.430Z,5.05
2023-05-10T05:00:49.337Z,4.80
2023-05-10T05:03:16.407Z,4.72
2023-05-10T05:05:43.416Z,5.30
2023-05-10T05:08:10.250Z,4.97
2023-05-10T05:10:37.128Z,5.53
2023-05-10T05:13:04.024Z,5.70
2023-05-10T05:15:31.705Z,4.80
2023-05-10T05:17:58.857Z,5.13
2023-05-10T05:20:25.742Z,4.95
2023-05-10T05:22:52.619Z,5.32
2023-05-10T05:25:19.574Z,5.10
2023-05-10T05:27:46.473Z,5.32
2023-05-10T05:30:16.910Z,5.47
2023-05-10T05:32:44.122Z,5.10
2023-05-10T05:35:11.112Z,4.95
2023-05-10T05:37:38.331Z,5.20
2023-05-10T05:40:05.733Z,5.22
2023-05-10T05:42:32.693Z,5.30
2023-05-10T05:44:59.600Z,4.88
2023-05-10T05:47:26.638Z,5.55
2023-05-10T05:49:53.441Z,4.90
2023-05-10T05:52:20.525Z,5.55
2023-05-10T05:54:47.448Z,5.15
2023-05-10T05:57:14.340Z,5.15
2023-05-10T05:59:44.952Z,5.50
2023-05-10T06:02:12.230Z,5.90
2023-05-10T06:04:39.293Z,4.32
2023-05-10T06:07:06.423Z,4.82
2023-05-10T06:09:33.376Z,4.80
2023-05-10T06:12:00.228Z,4.75
2023-05-10T06:14:27.245Z,4.38
2023-05-10T06:16:54.324Z,5.00
2023-05-10T06:19:21.210Z,4.30
2023-05-10T06:21:48.026Z,5.13
2023-05-10T06:24:14.882Z,4.18
2023-05-10T06:26:41.734Z,3.67
2023-05-10T06:29:08.538Z,4.38
2023-05-10T06:31:35.631Z,3.72
2023-05-10T06:34:02.785Z,3.80
2023-05-10T06:36:29.722Z,3.10
2023-05-10T06:38:56.861Z,3.03
2023-05-10T06:41:24.790Z,3.10
2023-05-10T06:43:51.888Z,3.30
2023-05-10T06:46:18.923Z,3.20
2023-05-10T06:48:45.995Z,3.35
2023-05-10T06:51:18.978Z,2.80
2023-05-10T06:53:46.118Z,2.72
2023-05-10T06:56:13.155Z,2.78
2023-05-10T06:58:40.032Z,2.70
2023-05-10T07:01:07.269Z,2.88
2023-05-10T07:03:34.258Z,2.80
2023-05-10T07:06:11.372Z,3.30
2023-05-10T07:08:42.816Z,2.90
2023-05-10T07:11:09.724Z,2.92
2023-05-10T07:13:37.416Z,2.97
2023-05-10T07:16:05.468Z,3.88
2023-05-10T07:18:32.334Z,4.18
2023-05-10T07:20:59.286Z,4.43
2023-05-10T07:23:26.297Z,3.65
2023-05-10T07:25:53.470Z,3.88
2023-05-10T07:28:20.876Z,2.80
2023-05-10T07:30:48.150Z,2.65
2023-05-10T07:33:16.153Z,2.38
2023-05-10T07:35:43.667Z,3.90
2023-05-10T07:38:12.234Z,2.20
2023-05-10T07:40:40.092Z,2.40
2023-05-10T07:43:07.077Z,2.50
2023-05-10T07:45:34.861Z,2.65
2023-05-10T07:48:01.811Z,2.40
2023-05-10T07:50:28.774Z,2.72
2023-05-10T07:52:55.932Z,2.30
2023-05-10T07:55:23.361Z,2.38
2023-05-10T07:57:50.204Z,2.38
2023-05-10T08:00:21.753Z,2.53
2023-05-10T08:02:49.005Z,2.50
2023-05-10T08:05:17.330Z,2.85
2023-05-10T08:07:44.538Z,2.40
2023-05-10T08:10:12.393Z,2.40
2023-05-10T08:12:39.884Z,2.33
2023-05-10T08:15:08.216Z,2.28
2023-05-10T08:17:35.487Z,2.70
2023-05-10T08:20:02.575Z,3.40
2023-05-10T08:22:29.564Z,2.70
2023-05-10T08:24:56.639Z,2.78
2023-05-10T08:27:23.690Z,2.35
2023-05-10T08:29:50.842Z,2.15
2023-05-10T08:32:18.337Z,2.10
2023-05-10T08:34:45.228Z,1.85
2023-05-10T08:37:14.600Z,2.10
2023-05-10T08:39:41.865Z,2.22
2023-05-10T08:42:10.311Z,2.30
2023-05-10T08:44:38.248Z,1.88
2023-05-10T08:47:10.405Z,2.42
2023-05-10T08:49:38.794Z,2.10
2023-05-10T08:52:08.624Z,2.13
2023-05-10T08:54:35.957Z,2.63
2023-05-10T08:57:03.137Z,2.08
2023-05-10T08:59:30.234Z,2.30
2023-05-10T09:02:01.189Z,3.13
2023-05-10T09:04:29.539Z,2.15
2023-05-10T09:06:56.597Z,2.00
2023-05-10T09:09:26.588Z,1.90
2023-05-10T09:11:54.460Z,2.03
2023-05-10T09:14:21.898Z,2.17
2023-05-10T09:16:49.014Z,1.85
2023-05-10T09:19:16.007Z,1.92
2023-05-10T09:21:43.369Z,2.00
2023-05-10T09:24:10.610Z,1.70
2023-05-10T09:26:48.674Z,1.98
2023-05-10T09:29:17.512Z,2.20
2023-05-10T09:31:52.286Z,2.33
2023-05-10T09:34:22.135Z,2.75
2023-05-10T09:36:57.565Z,2.30
2023-05-10T09:39:35.486Z,2.88
2023-05-10T09:42:10.577Z,2.30
2023-05-10T09:44:38.096Z,2.60
2023-05-10T09:47:05.462Z,2.40
2023-05-10T09:49:32.407Z,2.70
2023-05-10T09:52:03.715Z,3.08
2023-05-10T09:54:30.971Z,2.30
2023-05-10T09:56:58.168Z,3.40
2023-05-10T09:59:28.563Z,2.92
2023-05-10T10:02:00.739Z,3.75
2023-05-10T10:04:28.056Z,3.42
2023-05-10T10:07:03.830Z,3.55
2023-05-10T10:09:31.094Z,3.13
2023-05-10T10:11:58.208Z,4.43
2023-05-10T10:14:25.880Z,2.78
2023-05-10T10:17:06.375Z,2.50
2023-05-10T10:19:38.033Z,2.55
2023-05-10T10:22:05.698Z,3.03
2023-05-10T10:24:32.818Z,2.38
2023-05-10T10:27:29.837Z,2.65
2023-05-10T10:30:14.876Z,2.17
2023-05-10T10:33:27.784Z,2.50
2023-05-10T10:35:59.000Z,4.00
2023-05-10T10:38:26.152Z,2.53
2023-05-10T10:41:32.774Z,2.70
2023-05-10T10:44:23.446Z,2.50
2023-05-10T10:47:10.388Z,2.58
2023-05-10T10:49:49.583Z,2.08
2023-05-10T10:52:30.342Z,2.75
2023-05-10T10:55:10.495Z,2.30
2023-05-10T10:57:54.085Z,2.28
2023-05-10T11:00:39.340Z,2.35
2023-05-10T11:03:15.624Z,2.60
2023-05-10T11:05:59.087Z,2.25
2023-05-10T11:08:30.737Z,2.63
2023-05-10T11:11:00.420Z,2.20
2023-05-10T11:13:33.145Z,2.83
2023-05-10T11:16:10.597Z,2.60
2023-05-10T11:18:39.087Z,2.97
2023-05-10T11:21:10.489Z,2.90
2023-05-10T11:23:49.183Z,3.08
2023-05-10T11:26:16.062Z,2.40
2023-05-10T11:28:47.735Z,2.65
2023-05-10T11:31:19.074Z,4.43
2023-05-10T11:33:55.608Z,3.03
2023-05-10T11:38:50.657Z,3.70
2023-05-10T11:41:20.163Z,3.88
2023-05-10T11:43:50.096Z,4.00
2023-05-10T11:46:19.627Z,3.42
2023-05-10T11:48:46.783Z,3.33
2023-05-10T11:51:13.782Z,3.10
2023-05-10T11:53:40.781Z,3.35
2023-05-10T11:56:09.525Z,2.88
2023-05-10T11:58:38.500Z,2.65
2023-05-10T12:01:07.619Z,3.75
2023-05-10T12:03:35.580Z,3.38
2023-05-10T12:06:03.336Z,2.90
2023-05-10T12:08:32.075Z,3.10
2023-05-10T12:11:11.567Z,2.47
2023-05-10T12:13:47.546Z,2.60
2023-05-10T12:16:19.482Z,3.83
2023-05-10T12:18:49.177Z,3.15
2023-05-10T12:21:16.716Z,4.10
2023-05-10T12:23:43.717Z,4.88
2023-05-10T12:26:13.620Z,3.97
2023-05-10T12:28:40.809Z,2.50
2023-05-10T12:31:08.206Z,2.38
2023-05-10T12:33:43.615Z,2.40
2023-05-10T12:36:15.631Z,2.83
2023-05-10T12:41:19.900Z,3.60
2023-05-10T12:46:30.718Z,2.50
2023-05-10T12:49:08.035Z,3.38
2023-05-10T12:51:36.665Z,2.85
2023-05-10T12:54:04.979Z,4.30
2023-05-10T12:56:32.068Z,2.63
2023-05-10T12:58:59.028Z,4.68
2023-05-10T13:04:01.651Z,7.43
2023-05-10T13:06:28.887Z,4.13
2023-05-10T13:08:55.929Z,4.45
2023-05-10T13:11:22.915Z,4.60
2023-05-10T13:13:49.878Z,5.10
2023-05-10T13:16:16.705Z,6.60
2023-05-10T13:18:43.615Z,5.78
2023-05-10T13:21:10.682Z,7.13
2023-05-10T13:23:37.461Z,6.25
2023-05-10T13:26:04.310Z,4.13
2023-05-10T13:28:31.431Z,5.90
2023-05-10T13:30:58.356Z,5.97
2023-05-10T13:33:25.315Z,4.00
2023-05-10T13:35:54.352Z,3.08
2023-05-10T13:38:22.714Z,2.70
2023-05-10T13:40:54.008Z,3.72
2023-05-10T13:43:21.151Z,2.92
2023-05-10T13:45:47.967Z,3.90
2023-05-10T13:48:14.763Z,4.07
2023-05-10T13:50:41.636Z,4.13
2023-05-10T13:53:08.414Z,5.55
2023-05-10T13:55:35.339Z,4.90
2023-05-10T13:58:02.127Z,3.60
2023-05-10T14:00:30.270Z,2.67
2023-05-10T14:02:57.364Z,3.80
2023-05-10T14:05:26.286Z,3.45
2023-05-10T14:07:53.532Z,2.83
2023-05-10T14:10:20.435Z,3.45
2023-05-10T14:12:47.365Z,3.28
2023-05-10T14:15:14.280Z,3.35
2023-05-10T14:17:41.421Z,3.17
2023-05-10T14:20:09.492Z,2.90
2023-05-10T14:22:36.628Z,2.80
2023-05-10T14:25:03.992Z,3.40
2023-05-10T14:30:06.824Z,3.33
2023-05-10T14:32:33.790Z,3.63
2023-05-10T14:37:49.346Z,3.17
2023-05-10T14:40:16.393Z,3.58
2023-05-10T14:42:44.157Z,4.85
2023-05-10T14:45:12.300Z,5.70
2023-05-10T14:47:39.286Z,3.90
2023-05-10T14:50:06.789Z,3.53
2023-05-10T14:52:34.433Z,3.40
2023-05-10T14:55:02.462Z,3.53
2023-05-10T14:57:30.811Z,3.50
2023-05-10T14:59:58.243Z,4.20
2023-05-10T15:02:25.706Z,3.88
2023-05-10T15:04:53.128Z,3.95
2023-05-10T15:07:20.253Z,3.75
2023-05-10T15:09:47.316Z,4.32
2023-05-10T15:12:14.219Z,6.00
2023-05-10T15:14:41.089Z,4.03
2023-05-10T15:17:08.765Z,3.70
2023-05-10T15:19:35.678Z,5.07
2023-05-10T15:22:02.792Z,3.75
2023-05-10T15:24:30.192Z,4.38
2023-05-10T15:26:56.976Z,3.75
2023-05-10T15:29:23.935Z,4.55
2023-05-10T15:31:52.191Z,4.00
2023-05-10T15:34:19.968Z,3.72
2023-05-10T15:36:47.028Z,3.85
2023-05-10T15:39:13.964Z,4.00
2023-05-10T15:59:27.071Z,3.47
2023-05-10T16:01:54.125Z,3.33
2023-05-10T16:04:21.246Z,3.65
2023-05-10T16:06:48.269Z,3.70
2023-05-10T16:09:15.875Z,3.90
2023-05-10T16:11:45.649Z,3.70
2023-05-10T16:14:12.619Z,4.13
2023-05-10T16:16:39.772Z,3.63
2023-05-10T16:19:06.850Z,3.88
2023-05-10T16:21:34.025Z,3.50
2023-05-10T16:24:01.822Z,3.90
2023-05-10T16:26:28.980Z,3.70
2023-05-10T16:28:55.815Z,3.95
2023-05-10T16:31:23.388Z,4.00
2023-05-10T16:33:50.484Z,3.88
2023-05-10T16:36:17.587Z,4.20
2023-05-10T16:38:44.483Z,3.70
2023-05-10T16:41:11.613Z,3.58
2023-05-10T16:43:38.672Z,4.55
2023-05-10T16:46:12.032Z,4.70
2023-05-10T16:48:39.116Z,3.55
2023-05-10T16:51:06.232Z,3.53
2023-05-10T16:53:33.157Z,3.47
2023-05-10T16:56:00.364Z,4.03
2023-05-10T16:58:27.422Z,4.22
2023-05-10T17:00:54.354Z,4.00
2023-05-10T17:03:21.898Z,4.72
2023-05-10T17:05:48.932Z,4.28
2023-05-10T17:08:16.854Z,4.43
2023-05-10T17:10:43.959Z,4.57
2023-05-10T17:13:11.231Z,3.72
2023-05-10T17:15:39.653Z,4.57
2023-05-10T17:18:07.977Z,3.97
2023-05-10T17:20:35.222Z,7.53
2023-05-10T17:23:03.798Z,5.88
2023-05-10T17:25:31.259Z,5.18
2023-05-10T17:27:58.218Z,5.47
2023-05-10T17:30:28.331Z,3.65
2023-05-10T17:32:55.604Z,5.35
2023-05-10T17:35:22.895Z,5.72
2023-05-10T17:37:49.835Z,5.00
2023-05-10T17:40:17.464Z,4.30
2023-05-10T17:42:45.240Z,4.60
2023-05-10T17:45:12.459Z,4.75
2023-05-10T17:47:39.571Z,4.20
2023-05-10T17:50:07.326Z,4.40
2023-05-10T17:52:34.340Z,4.55
2023-05-10T17:55:01.770Z,3.88
2023-05-10T17:57:28.896Z,4.70
2023-05-10T17:59:56.096Z,4.20
2023-05-10T18:02:23.083Z,3.70
2023-05-10T18:04:50.106Z,4.30
2023-05-10T18:07:17.232Z,4.97
2023-05-10T18:09:44.075Z,4.50
2023-05-10T18:12:11.015Z,4.40
2023-05-10T18:14:40.967Z,4.80
2023-05-10T18:17:09.877Z,5.07
2023-05-10T18:19:37.085Z,4.30
2023-05-10T18:22:03.932Z,5.88
2023-05-10T18:24:39.008Z,4.43
2023-05-10T18:27:08.882Z,4.45
2023-05-10T18:29:37.213Z,5.18
2023-05-10T18:32:04.362Z,4.35
2023-05-10T18:34:31.339Z,4.85
2023-05-10T18:36:58.275Z,5.15
2023-05-10T18:39:25.278Z,5.90
2023-05-10T18:41:52.485Z,5.32
2023-05-10T18:44:19.567Z,6.45
2023-05-10T18:46:46.872Z,5.82
2023-05-10T18:49:13.741Z,6.50
2023-05-10T18:51:40.770Z,5.30
2023-05-10T18:54:07.697Z,5.68
2023-05-10T18:56:34.681Z,7.57
2023-05-10T18:59:01.726Z,7.68
2023-05-10T19:01:28.681Z,10.10
2023-05-10T19:03:55.495Z,5.93
2023-05-10T19:06:22.535Z,4.50
2023-05-10T19:08:50.513Z,4.97
2023-05-10T19:11:17.554Z,4.55
2023-05-10T19:13:45.503Z,4.50
2023-05-10T19:16:16.771Z,5.13
2023-05-10T19:18:46.861Z,4.50
2023-05-10T19:21:14.603Z,4.80
2023-05-10T19:23:43.069Z,5.22
2023-05-10T19:26:11.308Z,4.93
2023-05-10T19:28:38.976Z,3.90
2023-05-10T19:31:06.397Z,4.13
2023-05-10T19:33:33.488Z,4.10
2023-05-10T19:36:00.938Z,4.50
2023-05-10T19:38:28.531Z,4.10
2023-05-10T19:40:58.439Z,4.80
2023-05-10T19:43:27.111Z,6.47
2023-05-10T19:45:55.770Z,5.65
2023-05-10T19:48:24.507Z,5.30
2023-05-10T19:50:52.872Z,5.38
2023-05-10T19:53:20.052Z,5.53
2023-05-10T19:55:47.074Z,5.05
2023-05-10T19:58:14.533Z,4.70
2023-05-10T20:00:41.534Z,4.20
2023-05-10T20:03:09.417Z,4.38
2023-05-10T20:05:36.507Z,4.32
2023-05-10T20:08:03.467Z,4.20
2023-05-10T20:10:30.416Z,4.05
2023-05-10T20:12:59.234Z,4.28
2023-05-10T20:15:26.424Z,5.00
2023-05-10T20:17:55.278Z,4.50
2023-05-10T20:20:22.369Z,4.80
2023-05-10T20:22:50.356Z,4.32
2023-05-10T20:25:19.345Z,5.10
2023-05-10T20:27:46.836Z,3.75
2023-05-10T20:30:14.310Z,4.00
2023-05-10T20:32:41.303Z,4.63
2023-05-10T20:35:09.482Z,4.60
2023-05-10T20:37:39.215Z,5.25
2023-05-10T20:40:07.458Z,4.90
2023-05-10T20:42:34.660Z,4.80
2023-05-10T20:45:02.210Z,4.45
2023-05-10T20:47:29.276Z,4.03
2023-05-10T20:49:56.323Z,4.47
2023-05-10T20:52:24.594Z,4.88
2023-05-10T20:54:51.693Z,3.75
2023-05-10T20:57:20.237Z,4.03
2023-05-10T20:59:47.186Z,4.30
2023-05-10T21:02:14.050Z,3.63
2023-05-10T21:04:41.158Z,3.67
2023-05-10T21:07:07.960Z,5.93
2023-05-10T21:09:43.499Z,4.43
2023-05-10T21:12:11.033Z,4.05
2023-05-10T21:14:38.004Z,4.00
2023-05-10T21:17:04.953Z,5.35
2023-05-10T21:19:31.784Z,3.92
2023-05-10T21:21:59.833Z,5.57
2023-05-10T21:24:28.203Z,3.83
2023-05-10T21:26:55.270Z,4.35
2023-05-10T21:29:22.216Z,5.55
2023-05-10T21:31:49.169Z,4.70
2023-05-10T21:34:18.089Z,4.22
2023-05-10T21:36:44.968Z,3.55
2023-05-10T21:39:11.982Z,4.32
2023-05-10T21:41:39.121Z,4.60
2023-05-10T21:44:06.081Z,4.07
2023-05-10T21:46:32.982Z,4.20
2023-05-10T21:48:59.978Z,3.78
2023-05-10T21:51:26.823Z,4.05
2023-05-10T21:53:54.045Z,3.88
2023-05-10T21:56:20.874Z,4.10
2023-05-10T21:58:48.099Z,3.40
2023-05-10T22:01:17.196Z,4.20
2023-05-10T22:03:44.749Z,4.07
2023-05-10T22:06:11.678Z,3.70
2023-05-10T22:08:38.502Z,4.43
2023-05-10T22:11:05.448Z,4.18
2023-05-10T22:13:32.282Z,3.53
2023-05-10T22:15:59.399Z,3.90
2023-05-10T22:18:26.461Z,3.88
2023-05-10T22:20:53.324Z,4.78
2023-05-10T22:23:20.150Z,4.47
2023-05-10T22:25:47.029Z,4.00
2023-05-10T22:28:13.861Z,4.18
2023-05-10T22:30:42.694Z,4.13
2023-05-10T22:33:09.624Z,3.85
2023-05-10T22:35:36.484Z,4.47
2023-05-10T22:38:03.325Z,3.95
2023-05-10T22:40:30.309Z,5.00
2023-05-10T22:42:57.317Z,4.05
2023-05-10T22:45:24.253Z,4.53
2023-05-10T22:47:51.337Z,4.07
2023-05-10T22:50:18.821Z,4.00
2023-05-10T22:52:46.037Z,4.88
2023-05-10T22:55:12.906Z,5.22
2023-05-10T22:57:40.083Z,3.90
2023-05-10T23:00:07.658Z,4.30
2023-05-10T23:02:35.048Z,4.28
2023-05-10T23:05:02.016Z,4.55
2023-05-10T23:07:28.986Z,4.05
2023-05-10T23:09:55.977Z,4.63
2023-05-10T23:12:22.945Z,5.18
2023-05-10T23:14:50.739Z,4.60
2023-05-10T23:17:17.653Z,5.07
2023-05-10T23:19:44.664Z,4.68
2023-05-10T23:22:11.599Z,4.57
2023-05-10T23:24:39.334Z,4.82
2023-05-10T23:27:06.306Z,4.40
2023-05-10T23:29:34.973Z,5.22
2023-05-10T23:32:01.973Z,4.07
2023-05-10T23:34:28.948Z,4.78
2023-05-10T23:36:56.619Z,4.65
2023-05-10T23:39:23.399Z,4.88
2023-05-10T23:41:50.411Z,4.40
2023-05-10T23:44:17.276Z,4.35
2023-05-10T23:46:44.189Z,4.18
2023-05-10T23:49:11.255Z,4.68
2023-05-10T23:55:35.120Z,4.95
2023-05-10T23:58:02.318Z,4.40
